createdAt,value
2018-08-23T00:00:39.748Z,20.31
2018-08-23T00:01:39.869Z,20.33
2018-08-23T00:02:39.712Z,20.30
2018-08-23T00:03:39.839Z,20.17
2018-08-23T00:04:39.663Z,20.25
2018-08-23T00:05:39.726Z,20.15
2018-08-23T00:06:39.615Z,20.16
2018-08-23T00:07:39.726Z,20.19
2018-08-23T00:08:39.610Z,20.05
2018-08-23T00:09:39.629Z,20.08
2018-08-23T00:10:39.530Z,19.97
2018-08-23T00:11:39.658Z,19.98
2018-08-23T00:12:39.502Z,19.98
2018-08-23T00:13:39.573Z,20.02
2018-08-23T00:14:39.452Z,19.92
2018-08-23T00:15:39.466Z,19.87
2018-08-23T00:16:39.428Z,19.94
2018-08-23T00:17:40.498Z,19.89
2018-08-23T00:18:39.351Z,19.83
2018-08-23T00:19:39.391Z,19.87
2018-08-23T00:20:39.317Z,19.89
2018-08-23T00:21:39.398Z,19.89
2018-08-23T00:22:39.270Z,19.87
2018-08-23T00:23:40.346Z,19.90
2018-08-23T00:24:39.222Z,19.86
2018-08-23T00:25:39.214Z,19.86
2018-08-23T00:26:39.230Z,19.87
2018-08-23T00:27:39.158Z,19.87
2018-08-23T00:29:25.829Z,19.89
2018-08-23T00:30:25.864Z,19.86
2018-08-23T00:31:25.762Z,19.86
2018-08-23T00:32:25.859Z,19.87
2018-08-23T00:33:25.713Z,19.76
2018-08-23T00:34:25.776Z,19.75
2018-08-23T00:35:25.662Z,19.78
2018-08-23T00:36:25.775Z,19.79
2018-08-23T00:37:25.618Z,19.83
2018-08-23T00:38:25.645Z,19.75
2018-08-23T00:39:25.583Z,19.83
2018-08-23T00:40:25.707Z,19.79
2018-08-23T00:41:25.536Z,19.76
2018-08-23T00:42:25.629Z,19.82
2018-08-23T00:43:25.497Z,19.75
2018-08-23T00:44:25.541Z,19.65
2018-08-23T00:45:25.450Z,19.68
2018-08-23T00:46:25.508Z,19.62
2018-08-23T00:47:25.404Z,19.65
2018-08-23T00:48:25.524Z,19.65
2018-08-23T00:49:25.398Z,19.72
2018-08-23T00:50:25.531Z,19.70
2018-08-23T00:51:25.321Z,19.62
2018-08-23T00:52:25.445Z,19.75
2018-08-23T00:53:25.263Z,19.60
2018-08-23T00:54:25.461Z,19.65
2018-08-23T00:55:25.233Z,19.61
2018-08-23T00:56:25.279Z,19.58
2018-08-23T00:57:25.181Z,19.60
2018-08-23T00:58:25.287Z,19.62
2018-08-23T00:59:25.153Z,19.52
2018-08-23T01:00:25.132Z,19.61
2018-08-23T01:01:25.105Z,19.50
2018-08-23T01:02:26.135Z,19.45
2018-08-23T01:03:25.061Z,19.50
2018-08-23T01:04:25.121Z,19.43
2018-08-23T01:05:25.012Z,19.42
2018-08-23T01:06:25.122Z,19.57
2018-08-23T01:07:24.971Z,19.45
2018-08-23T01:08:24.968Z,19.46
2018-08-23T01:09:24.923Z,19.38
2018-08-23T01:10:24.952Z,19.32
2018-08-23T01:11:24.873Z,19.35
2018-08-23T01:12:24.977Z,19.35
2018-08-23T01:13:24.853Z,19.45
2018-08-23T01:14:24.880Z,19.32
2018-08-23T01:16:11.767Z,19.30
2018-08-23T01:17:11.790Z,19.34
2018-08-23T01:18:11.703Z,19.31
2018-08-23T01:19:11.734Z,19.38
2018-08-23T01:20:11.654Z,19.35
2018-08-23T01:21:11.712Z,19.32
2018-08-23T01:22:11.611Z,19.28
2018-08-23T01:23:11.634Z,19.16
2018-08-23T01:24:11.572Z,19.34
2018-08-23T01:25:11.642Z,19.16
2018-08-23T01:26:11.518Z,19.15
2018-08-23T01:27:11.547Z,19.20
2018-08-23T01:28:11.493Z,19.38
2018-08-23T01:29:11.564Z,19.27
2018-08-23T01:30:11.442Z,19.23
2018-08-23T01:31:11.489Z,19.32
2018-08-23T01:32:11.391Z,19.24
2018-08-23T01:33:11.507Z,19.25
2018-08-23T01:34:11.533Z,19.24
2018-08-23T01:35:11.898Z,19.30
2018-08-23T01:36:11.448Z,19.31
2018-08-23T01:37:11.372Z,19.23
2018-08-23T01:38:11.305Z,19.20
2018-08-23T01:39:11.245Z,19.25
2018-08-23T01:40:11.213Z,19.16
2018-08-23T01:41:11.231Z,19.13
2018-08-23T01:42:11.172Z,19.28
2018-08-23T01:43:11.302Z,19.16
2018-08-23T01:44:11.127Z,19.17
2018-08-23T01:45:11.314Z,19.15
2018-08-23T01:46:11.069Z,19.21
2018-08-23T01:47:11.321Z,19.10
2018-08-23T01:48:11.106Z,19.12
2018-08-23T01:49:11.024Z,19.07
2018-08-23T01:50:11.049Z,19.09
2018-08-23T01:51:57.639Z,18.99
2018-08-23T01:52:57.535Z,19.05
2018-08-23T01:54:51.356Z,19.12
2018-08-23T01:55:51.399Z,19.06
2018-08-23T01:56:51.290Z,19.01
2018-08-23T01:57:51.394Z,19.10
2018-08-23T01:58:51.233Z,18.99
2018-08-23T01:59:51.298Z,18.94
2018-08-23T02:00:51.207Z,18.97
2018-08-23T02:01:51.183Z,18.91
2018-08-23T02:02:51.226Z,18.94
2018-08-23T02:03:51.142Z,18.89
2018-08-23T02:04:51.236Z,18.89
2018-08-23T02:05:51.078Z,18.89
2018-08-23T02:06:51.148Z,18.84
2018-08-23T02:07:51.041Z,18.78
2018-08-23T02:08:51.157Z,18.79
2018-08-23T02:09:50.995Z,18.74
2018-08-23T02:10:51.155Z,18.72
2018-08-23T02:11:50.952Z,18.69
2018-08-23T02:12:50.954Z,18.66
2018-08-23T02:13:50.922Z,18.57
2018-08-23T02:14:50.996Z,18.62
2018-08-23T02:15:37.754Z,18.62
2018-08-23T02:16:37.775Z,18.66
2018-08-23T02:17:37.678Z,18.57
2018-08-23T02:18:37.684Z,18.64
2018-08-23T02:19:37.634Z,18.57
2018-08-23T02:20:37.703Z,18.56
2018-08-23T02:21:37.581Z,18.60
2018-08-23T02:22:38.637Z,18.64
2018-08-23T02:23:37.541Z,18.65
2018-08-23T02:24:37.625Z,18.56
2018-08-23T02:25:37.514Z,18.69
2018-08-23T02:26:37.537Z,18.66
2018-08-23T02:27:37.460Z,18.69
2018-08-23T02:28:37.604Z,18.60
2018-08-23T02:29:37.411Z,18.65
2018-08-23T02:30:37.513Z,18.56
2018-08-23T02:31:37.366Z,18.65
2018-08-23T02:32:37.531Z,18.59
2018-08-23T02:33:37.328Z,18.59
2018-08-23T02:34:37.435Z,18.60
2018-08-23T02:35:37.296Z,18.51
2018-08-23T02:36:37.350Z,18.47
2018-08-23T02:37:37.229Z,18.53
2018-08-23T02:38:37.371Z,18.50
2018-08-23T02:39:37.216Z,18.49
2018-08-23T02:40:37.160Z,18.50
2018-08-23T02:41:37.272Z,18.47
2018-08-23T02:42:37.143Z,18.39
2018-08-23T02:43:37.204Z,18.36
2018-08-23T02:44:37.094Z,18.26
2018-08-23T02:45:37.196Z,18.31
2018-08-23T02:46:37.028Z,18.23
2018-08-23T02:47:37.113Z,18.17
2018-08-23T02:48:36.987Z,18.19
2018-08-23T02:49:37.129Z,18.11
2018-08-23T02:50:36.935Z,18.11
2018-08-23T02:51:36.926Z,18.11
2018-08-23T02:52:37.040Z,17.96
2018-08-23T02:53:36.897Z,17.95
2018-08-23T02:54:36.957Z,17.95
2018-08-23T02:55:36.827Z,17.95
2018-08-23T02:56:36.969Z,17.98
2018-08-23T02:57:36.779Z,17.95
2018-08-23T02:58:36.865Z,17.92
2018-08-23T02:59:36.733Z,17.95
2018-08-23T03:00:36.943Z,17.99
2018-08-23T03:01:36.699Z,17.91
2018-08-23T03:02:36.757Z,17.94
2018-08-23T03:03:36.649Z,17.96
2018-08-23T03:04:36.629Z,17.94
2018-08-23T03:05:36.610Z,17.98
2018-08-23T03:06:36.676Z,18.01
2018-08-23T03:07:36.566Z,17.89
2018-08-23T03:08:36.597Z,17.86
2018-08-23T03:09:36.514Z,17.94
2018-08-23T03:10:36.494Z,17.86
2018-08-23T03:11:36.531Z,17.87
2018-08-23T03:13:22.997Z,17.91
2018-08-23T03:14:23.011Z,17.79
2018-08-23T03:16:16.774Z,17.74
2018-08-23T03:17:16.800Z,17.74
2018-08-23T03:18:16.714Z,17.66
2018-08-23T03:19:16.841Z,17.66
2018-08-23T03:20:16.652Z,17.71
2018-08-23T03:21:16.639Z,17.66
2018-08-23T03:22:16.711Z,17.71
2018-08-23T03:23:16.578Z,17.68
2018-08-23T03:24:16.630Z,17.53
2018-08-23T03:25:16.547Z,17.68
2018-08-23T03:26:16.645Z,17.57
2018-08-23T03:27:16.497Z,17.53
2018-08-23T03:28:16.568Z,17.54
2018-08-23T03:29:16.459Z,17.58
2018-08-23T03:30:16.575Z,17.53
2018-08-23T03:31:16.415Z,17.47
2018-08-23T03:32:17.516Z,17.55
2018-08-23T03:33:16.376Z,17.54
2018-08-23T03:34:16.388Z,17.45
2018-08-23T03:35:16.325Z,17.57
2018-08-23T03:36:16.407Z,17.51
2018-08-23T03:37:16.264Z,17.51
2018-08-23T03:38:16.313Z,17.55
2018-08-23T03:39:16.222Z,17.53
2018-08-23T03:40:16.327Z,17.46
2018-08-23T03:41:16.182Z,17.57
2018-08-23T03:42:16.247Z,17.58
2018-08-23T03:43:16.150Z,17.54
2018-08-23T03:44:16.270Z,17.55
2018-08-23T03:45:16.110Z,17.51
2018-08-23T03:46:16.175Z,17.49
2018-08-23T03:47:16.053Z,17.51
2018-08-23T03:48:16.028Z,17.49
2018-08-23T03:49:16.003Z,17.55
2018-08-23T03:50:16.100Z,17.49
2018-08-23T03:51:15.956Z,17.54
2018-08-23T03:52:16.002Z,17.55
2018-08-23T03:53:15.923Z,17.51
2018-08-23T03:54:16.013Z,17.53
2018-08-23T03:55:15.873Z,17.51
2018-08-23T03:56:15.924Z,17.43
2018-08-23T03:57:15.838Z,17.42
2018-08-23T03:58:15.807Z,17.42
2018-08-23T03:59:15.784Z,17.38
2018-08-23T04:01:11.758Z,17.33
2018-08-23T04:02:11.777Z,17.35
2018-08-23T04:03:11.687Z,17.33
2018-08-23T04:04:11.834Z,17.27
2018-08-23T04:05:11.643Z,17.27
2018-08-23T04:06:11.700Z,17.27
2018-08-23T04:07:11.593Z,17.24
2018-08-23T04:08:11.724Z,17.32
2018-08-23T04:09:11.544Z,17.27
2018-08-23T04:10:11.628Z,17.27
2018-08-23T04:11:11.509Z,17.27
2018-08-23T04:12:11.632Z,17.28
2018-08-23T04:13:11.466Z,17.27
2018-08-23T04:14:11.444Z,17.28
2018-08-23T04:15:11.468Z,17.33
2018-08-23T04:16:11.390Z,17.28
2018-08-23T04:17:11.457Z,17.42
2018-08-23T04:18:11.339Z,17.35
2018-08-23T04:19:11.477Z,17.36
2018-08-23T04:20:11.299Z,17.35
2018-08-23T04:21:11.398Z,17.35
2018-08-23T04:22:11.253Z,17.40
2018-08-23T04:23:11.234Z,17.38
2018-08-23T04:24:11.208Z,17.40
2018-08-23T04:25:11.239Z,17.42
2018-08-23T04:26:11.190Z,17.35
2018-08-23T04:27:12.350Z,17.36
2018-08-23T04:28:11.119Z,17.38
2018-08-23T04:29:11.128Z,17.40
2018-08-23T04:30:11.084Z,17.36
2018-08-23T04:31:11.157Z,17.35
2018-08-23T04:32:11.039Z,17.43
2018-08-23T04:33:11.076Z,17.39
2018-08-23T04:34:10.987Z,17.40
2018-08-23T04:35:11.069Z,17.32
2018-08-23T04:36:10.944Z,17.33
2018-08-23T04:37:12.013Z,17.24
2018-08-23T04:38:10.901Z,17.18
2018-08-23T04:39:11.920Z,17.07
2018-08-23T04:40:10.840Z,17.15
2018-08-23T04:41:10.902Z,17.06
2018-08-23T04:42:10.796Z,16.96
2018-08-23T04:43:10.847Z,16.91
2018-08-23T04:44:10.757Z,17.03
2018-08-23T04:45:10.830Z,16.90
2018-08-23T04:46:10.716Z,16.96
2018-08-23T04:48:00.926Z,16.91
2018-08-23T04:49:00.929Z,16.85
2018-08-23T04:50:00.849Z,17.00
2018-08-23T04:51:00.842Z,16.85
2018-08-23T04:52:00.801Z,16.95
2018-08-23T04:53:00.778Z,16.90
2018-08-23T04:54:00.889Z,16.96
2018-08-23T04:55:00.726Z,16.99
2018-08-23T04:56:00.930Z,17.00
2018-08-23T04:57:00.679Z,17.00
2018-08-23T04:58:00.780Z,17.09
2018-08-23T04:59:00.631Z,16.99
2018-08-23T05:00:00.720Z,17.02
2018-08-23T05:01:00.598Z,17.17
2018-08-23T05:02:00.718Z,17.12
2018-08-23T05:03:00.565Z,17.15
2018-08-23T05:04:00.636Z,17.15
2018-08-23T05:05:00.504Z,17.10
2018-08-23T05:06:00.605Z,17.49
2018-08-23T05:07:00.452Z,17.68
2018-08-23T05:08:00.590Z,17.68
2018-08-23T05:09:00.417Z,17.70
2018-08-23T05:10:00.518Z,17.76
2018-08-23T05:11:00.367Z,17.77
2018-08-23T05:12:00.440Z,17.74
2018-08-23T05:13:00.324Z,17.60
2018-08-23T05:14:00.513Z,17.68
2018-08-23T05:15:00.283Z,17.57
2018-08-23T05:16:00.362Z,17.53
2018-08-23T05:17:00.237Z,17.45
2018-08-23T05:18:00.282Z,17.49
2018-08-23T05:19:00.187Z,17.53
2018-08-23T05:20:00.165Z,17.42
2018-08-23T05:21:01.292Z,17.45
2018-08-23T05:22:00.120Z,17.47
2018-08-23T05:23:50.477Z,17.45
2018-08-23T05:24:50.487Z,17.51
2018-08-23T05:25:50.414Z,17.55
2018-08-23T05:26:50.555Z,17.51
2018-08-23T05:27:50.350Z,17.54
2018-08-23T05:28:50.464Z,17.51
2018-08-23T05:29:50.327Z,17.58
2018-08-23T05:30:50.474Z,17.63
2018-08-23T05:31:50.281Z,17.55
2018-08-23T05:32:50.390Z,17.58
2018-08-23T05:33:50.223Z,17.65
2018-08-23T05:34:50.197Z,17.68
2018-08-23T05:35:50.303Z,17.68
2018-08-23T05:36:50.174Z,17.80
2018-08-23T05:37:50.320Z,17.79
2018-08-23T05:38:50.104Z,17.81
2018-08-23T05:39:50.094Z,17.79
2018-08-23T05:40:50.076Z,17.94
2018-08-23T05:41:50.084Z,17.83
2018-08-23T05:42:50.052Z,17.92
2018-08-23T05:43:50.100Z,17.92
2018-08-23T05:44:49.964Z,17.86
2018-08-23T05:45:49.936Z,17.91
2018-08-23T05:46:51.031Z,18.02
2018-08-23T05:47:49.897Z,18.16
2018-08-23T05:48:49.877Z,18.41
2018-08-23T05:50:36.329Z,18.49
2018-08-23T05:51:36.304Z,18.56
2018-08-23T05:52:36.342Z,18.60
2018-08-23T05:53:36.218Z,18.64
2018-08-23T05:54:36.320Z,18.57
2018-08-23T05:55:36.183Z,18.57
2018-08-23T05:56:36.154Z,18.65
2018-08-23T05:57:36.240Z,18.54
2018-08-23T05:58:36.124Z,18.54
2018-08-23T05:59:36.149Z,18.51
2018-08-23T06:00:36.060Z,18.53
2018-08-23T06:01:36.158Z,18.56
2018-08-23T06:02:36.071Z,18.46
2018-08-23T06:03:36.097Z,18.54
2018-08-23T06:04:35.975Z,18.50
2018-08-23T06:05:35.996Z,18.53
2018-08-23T06:06:35.939Z,18.57
2018-08-23T06:07:40.611Z,18.59
2018-08-23T06:08:35.895Z,18.56
2018-08-23T06:09:36.932Z,18.59
2018-08-23T06:10:35.849Z,18.65
2018-08-23T06:11:35.931Z,18.64
2018-08-23T06:12:35.999Z,18.64
2018-08-23T06:13:35.834Z,18.65
2018-08-23T06:14:35.761Z,18.60
2018-08-23T06:15:35.729Z,18.57
2018-08-23T06:16:35.752Z,18.72
2018-08-23T06:17:35.692Z,18.76
2018-08-23T06:18:35.780Z,18.84
2018-08-23T06:19:35.651Z,18.83
2018-08-23T06:20:35.683Z,18.83
2018-08-23T06:21:35.603Z,18.93
2018-08-23T06:22:35.697Z,18.84
2018-08-23T06:23:35.555Z,19.01
2018-08-23T06:24:35.657Z,18.96
2018-08-23T06:25:35.528Z,19.06
2018-08-23T06:27:21.447Z,19.05
2018-08-23T06:28:21.337Z,19.09
2018-08-23T06:29:21.408Z,19.02
2018-08-23T06:30:21.295Z,19.05
2018-08-23T06:31:21.318Z,19.07
2018-08-23T06:32:21.250Z,19.02
2018-08-23T06:33:22.376Z,19.10
2018-08-23T06:34:21.198Z,19.12
2018-08-23T06:35:21.181Z,19.13
2018-08-23T06:36:21.257Z,19.17
2018-08-23T06:37:21.131Z,19.15
2018-08-23T06:38:21.159Z,19.13
2018-08-23T06:39:21.104Z,19.15
2018-08-23T06:40:21.174Z,19.24
2018-08-23T06:41:21.044Z,19.27
2018-08-23T06:42:21.097Z,19.23
2018-08-23T06:43:21.002Z,19.24
2018-08-23T06:44:21.008Z,19.34
2018-08-23T06:45:20.974Z,19.39
2018-08-23T06:46:20.980Z,19.35
2018-08-23T06:47:20.916Z,19.47
2018-08-23T06:48:20.923Z,19.42
2018-08-23T06:49:20.873Z,19.45
2018-08-23T06:50:20.935Z,19.46
2018-08-23T06:51:20.903Z,19.55
2018-08-23T06:52:20.857Z,19.58
2018-08-23T06:53:20.770Z,19.65
2018-08-23T06:55:07.540Z,19.53
2018-08-23T06:56:07.497Z,19.60
2018-08-23T06:57:07.686Z,19.61
2018-08-23T06:58:07.497Z,19.67
2018-08-23T06:59:08.526Z,19.67
2018-08-23T07:00:07.495Z,19.70
2018-08-23T07:01:07.411Z,19.75
2018-08-23T07:02:07.401Z,19.67
2018-08-23T07:03:07.330Z,19.70
2018-08-23T07:04:07.410Z,19.78
2018-08-23T07:05:07.285Z,19.89
2018-08-23T07:06:07.322Z,19.85
2018-08-23T07:07:07.250Z,19.76
2018-08-23T07:08:07.230Z,19.79
2018-08-23T07:09:07.200Z,19.78
2018-08-23T07:10:07.181Z,19.89
2018-08-23T07:11:07.176Z,20.00
2018-08-23T07:12:07.127Z,20.01
2018-08-23T07:13:07.104Z,20.07
2018-08-23T07:14:07.080Z,20.12
2018-08-23T07:15:07.068Z,20.17
2018-08-23T07:16:07.045Z,20.19
2018-08-23T07:17:07.048Z,20.34
2018-08-23T07:19:06.141Z,20.35
2018-08-23T07:20:06.078Z,20.42
2018-08-23T07:21:59.825Z,20.48
2018-08-23T07:22:59.758Z,20.60
2018-08-23T07:23:59.741Z,20.61
2018-08-23T07:24:59.714Z,20.75
2018-08-23T07:25:59.702Z,20.73
2018-08-23T07:26:59.671Z,20.76
2018-08-23T07:27:59.640Z,20.78
2018-08-23T07:28:59.712Z,20.82
2018-08-23T07:29:59.717Z,20.83
2018-08-23T07:30:59.577Z,20.91
2018-08-23T07:31:59.552Z,20.90
2018-08-23T07:32:59.635Z,20.94
2018-08-23T07:33:59.520Z,20.96
2018-08-23T07:34:59.600Z,20.93
2018-08-23T07:35:59.477Z,21.01
2018-08-23T07:36:59.511Z,21.11
2018-08-23T07:37:59.411Z,21.11
2018-08-23T07:38:59.423Z,21.13
2018-08-23T07:39:59.369Z,21.19
2018-08-23T07:40:59.441Z,21.16
2018-08-23T07:41:59.369Z,21.24
2018-08-23T07:42:59.724Z,21.34
2018-08-23T07:43:59.297Z,21.31
2018-08-23T07:44:59.364Z,21.38
2018-08-23T07:45:59.232Z,21.43
2018-08-23T07:46:59.271Z,21.51
2018-08-23T07:47:59.187Z,21.45
2018-08-23T07:48:59.296Z,21.51
2018-08-23T07:49:59.188Z,21.59
2018-08-23T07:51:00.220Z,21.63
2018-08-23T07:51:59.120Z,21.61
2018-08-23T07:52:59.234Z,21.71
2018-08-23T07:53:59.160Z,21.59
2018-08-23T07:54:59.158Z,21.73
2018-08-23T07:55:59.221Z,21.83
2018-08-23T07:56:58.994Z,21.79
2018-08-23T07:57:59.033Z,21.74
2018-08-23T07:58:59.094Z,21.77
2018-08-23T07:59:58.951Z,21.85
2018-08-23T08:00:58.896Z,21.81
2018-08-23T08:01:58.969Z,21.86
2018-08-23T08:02:58.860Z,21.94
2018-08-23T08:03:58.890Z,21.98
2018-08-23T08:05:51.627Z,21.94
2018-08-23T08:06:51.561Z,22.06
2018-08-23T08:07:51.553Z,22.12
2018-08-23T08:08:51.527Z,22.09
2018-08-23T08:09:51.519Z,22.14
2018-08-23T08:10:51.485Z,22.11
2018-08-23T08:11:51.454Z,22.14
2018-08-23T08:12:51.428Z,22.11
2018-08-23T08:13:51.409Z,22.21
2018-08-23T08:14:51.474Z,22.21
2018-08-23T08:15:51.378Z,22.27
2018-08-23T08:16:51.372Z,22.20
2018-08-23T08:17:51.317Z,22.26
2018-08-23T08:18:51.289Z,22.30
2018-08-23T08:19:51.285Z,22.38
2018-08-23T08:20:51.264Z,22.39
2018-08-23T08:21:51.236Z,22.39
2018-08-23T08:23:37.076Z,22.57
2018-08-23T08:24:37.028Z,22.59
2018-08-23T08:25:37.001Z,22.56
2018-08-23T08:26:36.964Z,22.59
2018-08-23T08:27:36.962Z,22.76
2018-08-23T08:28:36.936Z,22.67
2018-08-23T08:29:36.903Z,22.81
2018-08-23T08:30:36.878Z,22.81
2018-08-23T08:31:36.861Z,22.88
2018-08-23T08:32:36.838Z,22.88
2018-08-23T08:33:36.888Z,22.82
2018-08-23T08:34:36.899Z,22.97
2018-08-23T08:35:36.761Z,23.01
2018-08-23T08:36:36.859Z,22.93
2018-08-23T08:37:36.787Z,23.01
2018-08-23T08:38:36.920Z,22.99
2018-08-23T08:39:36.683Z,23.04
2018-08-23T08:40:36.787Z,23.15
2018-08-23T08:41:36.788Z,23.16
2018-08-23T08:42:36.636Z,23.29
2018-08-23T08:43:36.592Z,23.35
2018-08-23T08:44:36.566Z,23.42
2018-08-23T08:45:36.549Z,23.50
2018-08-23T08:46:36.537Z,23.60
2018-08-23T08:47:36.522Z,23.59
2018-08-23T08:48:37.556Z,23.60
2018-08-23T08:49:36.453Z,23.71
2018-08-23T08:50:36.601Z,23.77
2018-08-23T08:52:23.366Z,23.90
2018-08-23T08:53:23.302Z,23.89
2018-08-23T08:54:23.371Z,23.96
2018-08-23T08:55:23.239Z,24.02
2018-08-23T08:56:23.279Z,24.06
2018-08-23T08:57:23.201Z,24.14
2018-08-23T08:58:23.298Z,24.18
2018-08-23T08:59:23.160Z,24.26
2018-08-23T09:00:23.205Z,24.26
2018-08-23T09:01:23.119Z,24.27
2018-08-23T09:02:23.213Z,24.26
2018-08-23T09:03:23.109Z,24.31
2018-08-23T09:04:23.129Z,24.30
2018-08-23T09:05:23.039Z,24.36
2018-08-23T09:06:23.044Z,24.27
2018-08-23T09:07:22.985Z,24.16
2018-08-23T09:08:23.056Z,24.36
2018-08-23T09:09:22.928Z,24.37
2018-08-23T09:10:22.914Z,24.39
2018-08-23T09:11:22.892Z,24.37
2018-08-23T09:12:22.862Z,24.48
2018-08-23T09:13:22.842Z,24.45
2018-08-23T09:14:22.821Z,24.48
2018-08-23T09:15:22.798Z,24.45
2018-08-23T09:16:22.789Z,24.42
2018-08-23T09:17:22.760Z,24.48
2018-08-23T09:19:09.281Z,24.71
2018-08-23T09:20:09.419Z,24.84
2018-08-23T09:21:09.225Z,25.05
2018-08-23T09:22:09.320Z,24.98
2018-08-23T09:23:09.168Z,25.08
2018-08-23T09:24:09.137Z,25.11
2018-08-23T09:25:09.116Z,25.23
2018-08-23T09:26:09.087Z,25.24
2018-08-23T09:27:09.092Z,25.24
2018-08-23T09:28:09.057Z,25.16
2018-08-23T09:29:09.166Z,25.09
2018-08-23T09:30:08.996Z,25.19
2018-08-23T09:31:11.730Z,25.04
2018-08-23T09:32:09.171Z,24.94
2018-08-23T09:33:09.155Z,25.08
2018-08-23T09:34:09.598Z,25.07
2018-08-23T09:35:11.811Z,25.09
2018-08-23T09:36:08.887Z,25.05
2018-08-23T09:37:09.004Z,25.04
2018-08-23T09:38:08.828Z,25.09
2018-08-23T09:39:08.818Z,25.07
2018-08-23T09:40:08.795Z,25.08
2018-08-23T09:40:55.698Z,25.24
2018-08-23T09:41:55.710Z,25.31
2018-08-23T09:42:55.630Z,25.45
2018-08-23T09:43:55.642Z,25.59
2018-08-23T09:44:55.570Z,25.79
2018-08-23T09:45:55.556Z,25.85
2018-08-23T09:46:55.530Z,25.93
2018-08-23T09:47:55.512Z,25.79
2018-08-23T09:48:55.544Z,25.90
2018-08-23T09:49:55.586Z,26.00
2018-08-23T09:50:55.532Z,26.12
2018-08-23T09:51:56.495Z,26.13
2018-08-23T09:52:55.408Z,26.19
2018-08-23T09:53:55.384Z,26.32
2018-08-23T09:54:55.369Z,26.34
2018-08-23T09:55:55.408Z,26.49
2018-08-23T09:56:55.326Z,26.36
2018-08-23T09:57:55.288Z,26.47
2018-08-23T09:58:55.325Z,26.53
2018-08-23T09:59:55.317Z,26.72
2018-08-23T10:00:55.236Z,26.60
2018-08-23T10:01:55.236Z,26.72
2018-08-23T10:03:41.426Z,26.59
2018-08-23T10:04:42.529Z,26.57
2018-08-23T10:05:41.332Z,26.60
2018-08-23T10:06:41.445Z,26.68
2018-08-23T10:07:41.288Z,26.65
2018-08-23T10:08:41.357Z,26.69
2018-08-23T10:09:41.252Z,26.69
2018-08-23T10:10:41.265Z,26.75
2018-08-23T10:11:41.324Z,26.64
2018-08-23T10:12:41.276Z,26.56
2018-08-23T10:13:41.164Z,26.51
2018-08-23T10:14:41.132Z,26.60
2018-08-23T10:15:41.199Z,26.65
2018-08-23T10:16:41.091Z,26.61
2018-08-23T10:17:41.104Z,26.66
2018-08-23T10:18:41.047Z,26.79
2018-08-23T10:19:41.125Z,26.96
2018-08-23T10:20:41.000Z,26.76
2018-08-23T10:21:41.033Z,26.86
2018-08-23T10:22:40.964Z,26.61
2018-08-23T10:23:40.947Z,26.53
2018-08-23T10:24:40.954Z,26.54
2018-08-23T10:25:40.894Z,26.51
2018-08-23T10:26:40.940Z,26.46
2018-08-23T10:27:40.851Z,26.36
2018-08-23T10:28:40.887Z,26.56
2018-08-23T10:29:40.805Z,26.76
2018-08-23T10:30:40.783Z,26.90
2018-08-23T10:31:40.766Z,26.93
2018-08-23T10:32:40.820Z,26.94
2018-08-23T10:33:40.727Z,26.81
2018-08-23T10:34:40.816Z,26.84
2018-08-23T10:35:40.673Z,26.88
2018-08-23T10:36:40.659Z,26.81
2018-08-23T10:37:40.748Z,26.79
2018-08-23T10:38:40.642Z,26.83
2018-08-23T10:39:40.854Z,26.71
2018-08-23T10:40:40.596Z,26.65
2018-08-23T10:41:41.844Z,26.65
2018-08-23T10:42:40.525Z,26.54
2018-08-23T10:43:40.578Z,26.39
2018-08-23T10:44:40.572Z,26.41
2018-08-23T10:45:40.454Z,26.32
2018-08-23T10:46:40.434Z,26.28
2018-08-23T10:47:40.520Z,26.42
2018-08-23T10:48:40.390Z,26.54
2018-08-23T10:49:40.369Z,26.60
2018-08-23T10:51:26.824Z,26.94
2018-08-23T10:52:26.831Z,26.97
2018-08-23T10:53:26.758Z,26.93
2018-08-23T10:54:26.826Z,26.97
2018-08-23T10:55:26.682Z,26.84
2018-08-23T10:56:26.737Z,26.41
2018-08-23T10:57:26.632Z,26.35
2018-08-23T10:58:26.752Z,26.50
2018-08-23T10:59:26.596Z,26.56
2018-08-23T11:00:26.655Z,26.65
2018-08-23T11:01:26.561Z,26.91
2018-08-23T11:02:26.562Z,27.12
2018-08-23T11:04:12.554Z,27.25
2018-08-23T11:05:12.496Z,27.18
2018-08-23T11:06:12.566Z,27.20
2018-08-23T11:07:12.463Z,27.28
2018-08-23T11:08:12.621Z,27.38
2018-08-23T11:09:12.408Z,27.35
2018-08-23T11:10:12.421Z,27.62
2018-08-23T11:11:12.395Z,27.74
2018-08-23T11:12:12.445Z,27.87
2018-08-23T11:13:12.324Z,27.80
2018-08-23T11:14:12.455Z,27.86
2018-08-23T11:15:12.331Z,28.01
2018-08-23T11:16:12.358Z,28.18
2018-08-23T11:17:12.299Z,28.15
2018-08-23T11:18:12.228Z,28.17
2018-08-23T11:19:12.314Z,28.21
2018-08-23T11:20:12.198Z,28.27
2018-08-23T11:21:12.223Z,28.30
2018-08-23T11:22:12.132Z,28.51
2018-08-23T11:23:12.291Z,28.52
2018-08-23T11:24:12.150Z,28.82
2018-08-23T11:25:12.069Z,28.50
2018-08-23T11:26:12.165Z,28.67
2018-08-23T11:26:58.868Z,28.55
2018-08-23T11:27:58.859Z,28.55
2018-08-23T11:28:58.771Z,28.52
2018-08-23T11:29:59.801Z,28.67
2018-08-23T11:30:58.723Z,28.73
2018-08-23T11:31:58.701Z,28.70
2018-08-23T11:32:58.834Z,28.65
2018-08-23T11:33:58.671Z,28.69
2018-08-23T11:34:58.643Z,28.60
2018-08-23T11:35:58.623Z,28.54
2018-08-23T11:36:59.188Z,28.55
2018-08-23T11:37:58.570Z,28.64
2018-08-23T11:38:58.668Z,28.64
2018-08-23T11:39:58.532Z,28.61
2018-08-23T11:40:58.514Z,28.73
2018-08-23T11:41:58.489Z,28.55
2018-08-23T11:42:58.599Z,28.27
2018-08-23T11:43:58.449Z,28.06
2018-08-23T11:44:58.430Z,27.98
2018-08-23T11:45:58.467Z,27.88
2018-08-23T11:46:58.394Z,28.08
2018-08-23T11:47:58.538Z,28.15
2018-08-23T11:48:58.378Z,28.23
2018-08-23T11:49:59.461Z,28.23
2018-08-23T11:50:58.308Z,28.39
2018-08-23T11:51:58.456Z,28.35
2018-08-23T11:52:58.292Z,28.50
2018-08-23T11:53:58.428Z,28.55
2018-08-23T11:54:58.225Z,28.77
2018-08-23T11:55:58.200Z,28.82
2018-08-23T11:56:58.172Z,28.87
2018-08-23T11:57:58.306Z,28.82
2018-08-23T11:59:44.156Z,28.80
2018-08-23T12:00:44.108Z,28.85
2018-08-23T12:02:38.241Z,28.52
2018-08-23T12:03:38.193Z,28.40
2018-08-23T12:04:38.264Z,28.20
2018-08-23T12:05:38.146Z,28.17
2018-08-23T12:06:38.329Z,27.91
2018-08-23T12:07:38.114Z,27.90
2018-08-23T12:08:38.212Z,27.76
2018-08-23T12:09:38.064Z,27.87
2018-08-23T12:10:38.206Z,27.83
2018-08-23T12:11:38.022Z,27.65
2018-08-23T12:12:38.113Z,27.46
2018-08-23T12:13:37.981Z,27.58
2018-08-23T12:14:38.127Z,27.81
2018-08-23T12:15:37.958Z,27.83
2018-08-23T12:16:38.041Z,27.84
2018-08-23T12:17:37.906Z,28.01
2018-08-23T12:18:38.925Z,28.08
2018-08-23T12:19:37.854Z,28.21
2018-08-23T12:20:37.948Z,28.43
2018-08-23T12:21:37.817Z,28.42
2018-08-23T12:22:37.792Z,28.55
2018-08-23T12:23:38.873Z,28.60
2018-08-23T12:24:37.752Z,28.67
2018-08-23T12:25:39.827Z,28.82
2018-08-23T12:26:37.728Z,28.52
2018-08-23T12:27:37.768Z,28.52
2018-08-23T12:28:37.682Z,28.46
2018-08-23T12:29:38.885Z,28.50
2018-08-23T12:30:37.638Z,28.21
2018-08-23T12:31:44.689Z,28.06
2018-08-23T12:32:37.604Z,27.90
2018-08-23T12:34:30.340Z,27.88
2018-08-23T12:35:31.375Z,27.80
2018-08-23T12:37:30.250Z,27.58
2018-08-23T12:38:30.260Z,27.38
2018-08-23T12:40:25.232Z,27.21
2018-08-23T12:41:25.003Z,27.34
2018-08-23T12:42:25.068Z,27.42
2018-08-23T12:43:25.000Z,27.46
2018-08-23T12:44:25.099Z,27.50
2018-08-23T12:45:24.900Z,27.55
2018-08-23T12:46:25.029Z,27.50
2018-08-23T12:47:24.872Z,27.71
2018-08-23T12:48:25.008Z,27.95
2018-08-23T12:49:24.896Z,28.02
2018-08-23T12:50:29.731Z,28.06
2018-08-23T12:51:24.786Z,27.98
2018-08-23T12:53:27.862Z,27.65
2018-08-23T12:54:27.751Z,27.61
2018-08-23T12:55:27.824Z,27.63
2018-08-23T12:56:27.788Z,27.68
2018-08-23T12:57:27.866Z,27.77
2018-08-23T12:58:27.670Z,27.72
2018-08-23T12:59:27.758Z,27.72
2018-08-23T13:00:27.632Z,27.68
2018-08-23T13:01:27.632Z,27.76
2018-08-23T13:03:30.441Z,27.74
2018-08-23T13:04:30.390Z,27.77
2018-08-23T13:06:26.394Z,27.80
2018-08-23T13:08:39.870Z,27.49
2018-08-23T13:09:40.543Z,27.45
2018-08-23T13:11:34.018Z,27.31
2018-08-23T13:12:34.058Z,27.30
2018-08-23T13:13:33.973Z,27.25
2018-08-23T13:14:38.878Z,27.45
2018-08-23T13:15:33.930Z,27.55
2018-08-23T13:16:33.907Z,27.62
2018-08-23T13:17:33.943Z,27.80
2018-08-23T13:18:33.866Z,27.91